Time;durP1;ratioP1;P1;durP2;ratioP2;P2;SDS_P1;SDS_P2;PMS_P1;PMS_P2;Temp;Humidity;BMP_temperature;BMP_pressure;BME280_temperature;BME280_humidity;BME280_pressure;Samples;Min_cycle;Max_cycle;Signal;HPM_P1;HPM_P2
2020/12/14 00:05:22;;;;;;;10.70;5.18;;;5.70;99.90;;;;;;12401453;28;20054;-82
2020/12/14 00:11:34;;;;;;;10.35;5.05;;;5.70;99.90;;;;;;12408690;28;20050;-82
2020/12/14 00:17:35;;;;;;;8.02;4.38;;;5.70;99.90;;;;;;12411298;28;20054;-82
2020/12/14 00:23:37;;;;;;;7.20;4.53;;;5.70;99.90;;;;;;12394273;28;20069;-82
2020/12/14 00:29:38;;;;;;;9.10;4.85;;;5.60;99.90;;;;;;12391236;28;20059;-84
2020/12/14 00:35:39;;;;;;;9.98;4.28;;;5.60;99.90;;;;;;12412697;28;20071;-83
2020/12/14 00:41:41;;;;;;;8.80;4.85;;;5.40;99.90;;;;;;12417606;28;20055;-83
2020/12/14 00:47:42;;;;;;;8.38;4.40;;;5.40;99.90;;;;;;12412349;28;20064;-83
2020/12/14 00:53:43;;;;;;;8.45;4.90;;;5.40;99.90;;;;;;12413146;28;20050;-82
2020/12/14 00:59:45;;;;;;;23.02;6.25;;;5.40;99.90;;;;;;12411893;28;20566;-82
2020/12/14 01:05:46;;;;;;;9.57;5.50;;;5.30;99.90;;;;;;12406692;28;20165;-82
2020/12/14 01:11:48;;;;;;;10.20;5.95;;;5.30;99.90;;;;;;12383709;28;20101;-82
2020/12/14 01:17:49;;;;;;;13.02;5.60;;;5.30;99.90;;;;;;12378300;28;20483;-82
2020/12/14 01:23:51;;;;;;;6.97;4.53;;;5.20;99.90;;;;;;12399539;28;20046;-82
2020/12/14 01:29:53;;;;;;;10.20;4.45;;;5.20;99.90;;;;;;12371931;28;20061;-82
2020/12/14 01:35:55;;;;;;;10.52;4.72;;;5.40;99.90;;;;;;12398167;28;20058;-82
2020/12/14 01:41:56;;;;;;;12.57;5.32;;;5.40;99.90;;;;;;12376139;28;20058;-82
2020/12/14 01:48:03;;;;;;;8.88;4.97;;;5.30;99.90;;;;;;12374817;28;20057;-81
2020/12/14 01:54:23;;;;;;;8.20;4.60;;;5.20;99.90;;;;;;12381346;28;20077;-83
2020/12/14 02:00:24;;;;;;;8.52;4.13;;;5.30;99.90;;;;;;12404256;28;20049;-81
2020/12/14 02:06:26;;;;;;;9.43;3.97;;;5.30;99.90;;;;;;12427948;28;20054;-81
2020/12/14 02:12:28;;;;;;;7.90;3.95;;;5.30;99.90;;;;;;12400579;28;20053;-81
2020/12/14 02:18:29;;;;;;;8.57;4.05;;;5.30;99.90;;;;;;12404794;28;20050;-81
2020/12/14 02:24:30;;;;;;;10.02;4.00;;;5.30;99.90;;;;;;12379501;28;20073;-81
2020/12/14 02:30:32;;;;;;;7.18;3.22;;;5.20;99.90;;;;;;12403429;28;20052;-82
2020/12/14 02:36:33;;;;;;;7.95;3.05;;;5.20;99.90;;;;;;12398618;28;20054;-81
2020/12/14 02:42:35;;;;;;;8.43;3.00;;;5.30;99.90;;;;;;12375694;28;20497;-82
2020/12/14 02:48:36;;;;;;;8.40;2.88;;;5.40;99.90;;;;;;12381482;28;20053;-82
2020/12/14 02:54:39;;;;;;;5.68;2.90;;;5.40;99.90;;;;;;12393439;28;20054;-81
2020/12/14 03:00:41;;;;;;;4.85;2.63;;;5.50;99.90;;;;;;12375532;28;20108;-82
2020/12/14 03:06:46;;;;;;;5.53;2.75;;;5.40;99.90;;;;;;12373073;28;20057;-81
2020/12/14 03:12:48;;;;;;;6.25;2.97;;;5.30;99.90;;;;;;12380240;28;20089;-81
2020/12/14 03:18:49;;;;;;;7.28;3.47;;;5.30;99.90;;;;;;12394936;28;20054;-81
2020/12/14 03:24:51;;;;;;;8.98;3.70;;;5.30;99.90;;;;;;12386386;28;20068;-81
2020/12/14 03:30:53;;;;;;;5.85;2.95;;;5.30;99.90;;;;;;12365949;28;20510;-82
2020/12/14 03:36:56;;;;;;;6.47;2.80;;;5.40;99.90;;;;;;12388148;28;20105;-81
2020/12/14 03:42:58;;;;;;;5.97;2.45;;;5.40;99.90;;;;;;12392158;28;20073;-83
2020/12/14 03:49:00;;;;;;;6.03;2.38;;;5.60;99.90;;;;;;12388143;28;20085;-82
2020/12/14 03:55:02;;;;;;;7.10;2.72;;;5.70;99.90;;;;;;12400379;28;20054;-82
2020/12/14 04:01:05;;;;;;;8.18;3.35;;;5.80;99.90;;;;;;12412910;28;20050;-82
2020/12/14 04:07:06;;;;;;;9.32;3.60;;;5.70;99.90;;;;;;12412763;28;20572;-83
2020/12/14 04:13:08;;;;;;;6.95;3.88;;;5.70;99.90;;;;;;12414557;28;20054;-83
2020/12/14 04:19:09;;;;;;;7.97;4.50;;;5.50;99.90;;;;;;12378176;28;20061;-82
2020/12/14 04:25:10;;;;;;;6.63;4.20;;;5.60;99.90;;;;;;12400913;28;20520;-82
2020/12/14 04:31:12;;;;;;;8.05;4.90;;;5.60;99.90;;;;;;12396657;28;20050;-82
2020/12/14 04:37:14;;;;;;;10.65;4.45;;;5.70;99.90;;;;;;12378289;28;20056;-81
2020/12/14 04:43:16;;;;;;;12.02;4.78;;;5.70;99.90;;;;;;12383119;28;20050;-82
2020/12/14 04:49:17;;;;;;;11.68;4.68;;;5.90;99.90;;;;;;12410226;28;20136;-82
2020/12/14 04:55:21;;;;;;;7.80;4.15;;;5.90;99.90;;;;;;12413219;28;20045;-82
2020/12/14 05:01:24;;;;;;;10.80;4.13;;;6.00;99.90;;;;;;12412200;28;20103;-82
2020/12/14 05:07:43;;;;;;;7.95;4.45;;;6.00;99.90;;;;;;12401639;28;20058;-81
2020/12/14 05:13:45;;;;;;;8.35;3.90;;;6.00;99.90;;;;;;12387278;28;20050;-81
2020/12/14 05:19:46;;;;;;;8.98;4.53;;;6.10;99.90;;;;;;12378532;28;20050;-82
2020/12/14 05:25:48;;;;;;;7.68;4.35;;;6.10;99.90;;;;;;12379405;28;20117;-82
2020/12/14 05:31:59;;;;;;;7.95;4.30;;;5.90;99.90;;;;;;12414303;28;20104;-83
2020/12/14 05:38:25;;;;;;;7.68;4.45;;;5.90;99.90;;;;;;12391277;28;20499;-82
2020/12/14 05:44:27;;;;;;;8.60;4.20;;;5.80;99.90;;;;;;12374196;28;20411;-83
2020/12/14 05:50:29;;;;;;;10.05;4.13;;;5.80;99.90;;;;;;12402233;28;20094;-81
2020/12/14 05:56:33;;;;;;;5.82;3.78;;;5.70;99.90;;;;;;12390862;28;20049;-82
2020/12/14 06:02:35;;;;;;;8.35;4.10;;;5.70;99.90;;;;;;12392639;28;20050;-81
2020/12/14 06:08:46;;;;;;;7.85;4.20;;;5.70;99.90;;;;;;12396939;28;20046;-81
2020/12/14 06:14:57;;;;;;;6.10;3.55;;;5.70;99.90;;;;;;12370955;28;20092;-81
2020/12/14 06:21:01;;;;;;;10.40;3.95;;;5.80;99.90;;;;;;12397769;28;20050;-81
2020/12/14 06:27:08;;;;;;;5.88;3.30;;;5.90;99.90;;;;;;12392340;28;20053;-81
2020/12/14 06:33:12;;;;;;;8.15;3.83;;;5.90;99.90;;;;;;12397225;28;20054;-81
2020/12/14 06:39:37;;;;;;;7.90;3.50;;;6.00;99.90;;;;;;12390506;28;20050;-81
2020/12/14 06:45:41;;;;;;;6.25;3.00;;;6.00;99.90;;;;;;12384696;28;20422;-82
2020/12/14 06:51:53;;;;;;;5.43;3.35;;;6.10;99.90;;;;;;12403576;28;20522;-82
2020/12/14 06:57:55;;;;;;;10.70;4.22;;;6.30;99.90;;;;;;12395568;28;20054;-81
2020/12/14 07:03:57;;;;;;;7.35;3.28;;;6.20;99.90;;;;;;12384188;28;20090;-81
2020/12/14 07:10:22;;;;;;;9.80;3.85;;;6.30;99.90;;;;;;12400362;28;20080;-80
2020/12/14 07:16:30;;;;;;;7.93;3.78;;;6.50;99.90;;;;;;12375661;28;20655;-81
2020/12/14 07:22:48;;;;;;;10.00;4.18;;;6.40;99.90;;;;;;12382371;28;20050;-83
2020/12/14 07:28:53;;;;;;;8.45;3.28;;;6.50;99.90;;;;;;12388103;28;20475;-83
2020/12/14 07:34:54;;;;;;;6.78;3.72;;;6.50;99.90;;;;;;12401472;28;20077;-83
2020/12/14 07:41:07;;;;;;;7.25;3.88;;;6.50;99.90;;;;;;12399007;28;20422;-83
2020/12/14 07:47:21;;;;;;;7.18;4.20;;;6.50;99.90;;;;;;12397923;28;20058;-83
2020/12/14 07:53:25;;;;;;;7.07;3.70;;;6.50;99.90;;;;;;12383055;28;20065;-82
2020/12/14 07:59:29;;;;;;;8.40;4.13;;;6.60;99.90;;;;;;12399284;28;20070;-82
2020/12/14 08:05:31;;;;;;;6.53;3.55;;;6.70;99.90;;;;;;12400353;28;20069;-82
2020/12/14 08:11:33;;;;;;;7.63;3.70;;;6.70;99.90;;;;;;12387157;28;20063;-83
2020/12/14 08:17:36;;;;;;;6.57;3.35;;;6.80;99.90;;;;;;12399853;28;20061;-83
2020/12/14 08:23:38;;;;;;;7.60;3.30;;;6.80;99.90;;;;;;12404658;28;20042;-83
2020/12/14 08:30:00;;;;;;;6.65;3.10;;;6.80;99.90;;;;;;12406168;28;20105;-82
2020/12/14 08:36:09;;;;;;;7.28;3.47;;;6.80;99.90;;;;;;12393615;28;20383;-83
2020/12/14 08:42:12;;;;;;;5.00;3.10;;;7.00;99.90;;;;;;12388895;28;20516;-82
2020/12/14 08:48:13;;;;;;;4.85;3.30;;;7.00;99.90;;;;;;12413893;28;20050;-83
2020/12/14 08:54:17;;;;;;;8.40;3.25;;;7.10;99.90;;;;;;12403720;28;20061;-82
2020/12/14 09:00:22;;;;;;;5.57;3.28;;;7.10;99.90;;;;;;12410805;28;20057;-82
2020/12/14 09:06:31;;;;;;;5.72;3.40;;;7.10;99.90;;;;;;12406900;28;20062;-82
2020/12/14 09:12:32;;;;;;;7.97;3.60;;;7.20;99.90;;;;;;12384860;28;20060;-82
2020/12/14 09:18:42;;;;;;;6.75;3.50;;;7.30;99.90;;;;;;12392044;28;20442;-81
2020/12/14 09:24:44;;;;;;;7.13;3.60;;;7.30;99.90;;;;;;12396562;28;20049;-83
2020/12/14 09:30:45;;;;;;;7.25;4.35;;;7.20;99.90;;;;;;12393641;28;20046;-83
2020/12/14 09:36:51;;;;;;;11.27;4.50;;;7.10;99.90;;;;;;12400675;28;20058;-83
2020/12/14 09:42:52;;;;;;;7.47;5.00;;;7.20;99.90;;;;;;12393318;28;20129;-82
2020/12/14 09:48:55;;;;;;;12.60;5.60;;;7.20;99.90;;;;;;12400526;28;20053;-83
2020/12/14 09:54:57;;;;;;;11.60;4.78;;;7.20;99.90;;;;;;12377927;28;20062;-83
2020/12/14 10:00:58;;;;;;;9.68;5.13;;;7.20;99.90;;;;;;12374103;28;20053;-83
2020/12/14 10:06:59;;;;;;;9.75;5.32;;;7.20;99.90;;;;;;12383930;28;20049;-83
2020/12/14 10:13:01;;;;;;;13.73;5.43;;;7.10;99.90;;;;;;12409948;28;20079;-84
2020/12/14 10:19:03;;;;;;;10.38;5.65;;;7.20;99.90;;;;;;12369388;28;20063;-84
2020/12/14 10:25:05;;;;;;;7.95;5.90;;;7.20;99.90;;;;;;12365711;28;20050;-86
2020/12/14 10:31:08;;;;;;;11.15;6.15;;;7.30;99.90;;;;;;12383732;28;20043;-84
2020/12/14 10:37:09;;;;;;;9.95;5.80;;;7.40;99.90;;;;;;12395573;28;20054;-83
2020/12/14 10:43:11;;;;;;;9.82;6.65;;;7.40;99.90;;;;;;12397437;28;20058;-83
2020/12/14 10:49:12;;;;;;;10.18;6.57;;;7.50;99.90;;;;;;12398788;28;20058;-85
2020/12/14 10:55:13;;;;;;;9.32;6.38;;;7.60;99.90;;;;;;12396335;28;20061;-84
2020/12/14 11:01:15;;;;;;;10.77;6.20;;;7.60;99.90;;;;;;12387478;28;20050;-84
2020/12/14 11:07:17;;;;;;;10.35;6.15;;;7.70;99.90;;;;;;12380367;28;20054;-84
2020/12/14 11:13:18;;;;;;;12.45;6.53;;;7.70;99.90;;;;;;12367544;28;20521;-84
2020/12/14 11:19:19;;;;;;;8.70;5.97;;;7.80;99.90;;;;;;12363123;28;20141;-84
2020/12/14 11:25:22;;;;;;;9.77;5.97;;;7.70;99.90;;;;;;12372931;28;20510;-84
2020/12/14 11:31:23;;;;;;;10.60;6.22;;;7.80;99.90;;;;;;12379027;28;20061;-85
2020/12/14 11:37:29;;;;;;;13.23;7.22;;;7.60;99.90;;;;;;12381636;28;21121;-84
2020/12/14 11:43:30;;;;;;;9.63;6.05;;;7.40;99.90;;;;;;12381207;28;20050;-84
2020/12/14 11:49:32;;;;;;;9.23;6.35;;;7.50;99.90;;;;;;12399411;28;20058;-83
2020/12/14 11:55:34;;;;;;;10.82;6.63;;;7.40;99.90;;;;;;12395918;28;20089;-84
2020/12/14 12:01:35;;;;;;;13.10;6.72;;;7.40;99.90;;;;;;12387677;28;20093;-84
2020/12/14 12:07:43;;;;;;;10.88;6.10;;;7.60;99.90;;;;;;12394247;28;20061;-84
2020/12/14 12:13:46;;;;;;;7.00;4.80;;;7.50;99.90;;;;;;12397766;28;20049;-85
2020/12/14 12:19:51;;;;;;;8.20;5.20;;;7.70;99.90;;;;;;12409366;28;20070;-84
2020/12/14 12:25:53;;;;;;;8.05;5.80;;;7.60;99.90;;;;;;12400839;28;20398;-82
2020/12/14 12:31:56;;;;;;;11.30;6.65;;;7.50;99.90;;;;;;12370843;28;20096;-83
2020/12/14 12:38:05;;;;;;;7.57;6.00;;;7.60;99.90;;;;;;12381737;28;20050;-84
2020/12/14 12:44:07;;;;;;;8.65;5.55;;;7.60;99.90;;;;;;12370010;28;20137;-85
2020/12/14 12:50:08;;;;;;;10.75;6.35;;;7.70;99.90;;;;;;12371828;28;20551;-83
2020/12/14 12:56:10;;;;;;;10.50;5.72;;;7.70;99.90;;;;;;12389910;28;20073;-84
2020/12/14 13:02:12;;;;;;;7.22;5.43;;;7.80;99.90;;;;;;12378958;28;20039;-84
2020/12/14 13:08:18;;;;;;;7.60;5.80;;;7.70;99.90;;;;;;12373766;28;20137;-84
2020/12/14 13:14:19;;;;;;;8.48;4.90;;;7.80;99.90;;;;;;12378604;28;20049;-84
2020/12/14 13:20:20;;;;;;;8.20;4.90;;;7.80;99.90;;;;;;12382521;28;20078;-84
2020/12/14 13:26:22;;;;;;;9.57;5.43;;;7.80;99.90;;;;;;12389596;28;20091;-84
2020/12/14 13:32:23;;;;;;;8.23;5.10;;;7.60;99.90;;;;;;12376286;28;20053;-84
2020/12/14 13:38:35;;;;;;;8.25;5.18;;;7.70;99.90;;;;;;12394465;28;20053;-84
2020/12/14 13:44:36;;;;;;;6.90;5.00;;;7.80;99.90;;;;;;12366747;28;20058;-84
2020/12/14 13:50:37;;;;;;;11.00;5.60;;;7.80;99.90;;;;;;12392282;28;20050;-84
2020/12/14 13:56:40;;;;;;;6.50;4.70;;;7.90;99.90;;;;;;12384295;28;20410;-84
2020/12/14 14:02:41;;;;;;;7.00;4.68;;;7.90;99.90;;;;;;12388859;28;20061;-84
2020/12/14 14:08:54;;;;;;;7.00;4.43;;;7.90;99.90;;;;;;12382968;28;20060;-84
2020/12/14 14:14:55;;;;;;;5.60;4.15;;;7.90;99.90;;;;;;12372412;28;20073;-84
2020/12/14 14:20:57;;;;;;;6.38;4.22;;;8.00;99.90;;;;;;12399046;28;20065;-84
2020/12/14 14:26:58;;;;;;;6.18;3.95;;;8.00;99.90;;;;;;12389164;28;20061;-83
2020/12/14 14:32:59;;;;;;;6.40;3.83;;;8.00;99.90;;;;;;12397117;28;20046;-85
2020/12/14 14:39:13;;;;;;;7.40;3.75;;;8.00;99.90;;;;;;12394313;28;20126;-84
2020/12/14 14:45:16;;;;;;;7.00;4.03;;;8.00;99.90;;;;;;12387717;28;20453;-84
2020/12/14 14:51:34;;;;;;;6.00;4.18;;;8.00;99.90;;;;;;12397862;28;20046;-84
2020/12/14 14:57:35;;;;;;;8.77;4.07;;;8.00;99.90;;;;;;12394060;28;20054;-84
2020/12/14 15:03:37;;;;;;;5.88;4.22;;;8.00;99.90;;;;;;12394814;28;20042;-84
2020/12/14 15:09:39;;;;;;;8.07;4.03;;;7.90;99.90;;;;;;12403083;28;20058;-84
2020/12/14 15:15:44;;;;;;;11.40;4.97;;;7.90;99.90;;;;;;12393180;28;20424;-84
2020/12/14 15:21:45;;;;;;;8.02;3.60;;;7.90;99.90;;;;;;12392115;28;20761;-84
2020/12/14 15:27:47;;;;;;;5.70;3.28;;;7.80;99.90;;;;;;12382050;28;20486;-84
2020/12/14 15:33:48;;;;;;;5.10;3.35;;;7.80;99.90;;;;;;12441200;28;20054;-84
2020/12/14 15:39:50;;;;;;;5.75;2.90;;;7.70;99.90;;;;;;12401266;28;20106;-84
2020/12/14 15:45:52;;;;;;;4.10;2.85;;;7.60;99.90;;;;;;12401380;28;20119;-83
2020/12/14 15:51:53;;;;;;;7.20;3.38;;;7.60;99.90;;;;;;12383422;28;20136;-83
2020/12/14 15:57:54;;;;;;;6.30;2.92;;;7.60;99.90;;;;;;12380823;28;20065;-83
2020/12/14 16:03:55;;;;;;;5.75;3.28;;;7.60;99.90;;;;;;12373351;28;20749;-83
2020/12/14 16:10:03;;;;;;;5.65;2.60;;;7.70;99.90;;;;;;12375778;28;21313;-83
2020/12/14 16:16:09;;;;;;;5.93;2.90;;;7.70;99.90;;;;;;12391826;28;20562;-83
2020/12/14 16:22:10;;;;;;;5.47;3.00;;;7.70;99.90;;;;;;12404764;28;20062;-83
2020/12/14 16:28:12;;;;;;;5.57;2.78;;;7.60;99.90;;;;;;12404022;28;20093;-83
2020/12/14 16:34:13;;;;;;;6.28;2.60;;;7.50;99.90;;;;;;12403332;28;20112;-83
2020/12/14 16:40:15;;;;;;;5.15;2.20;;;7.40;99.90;;;;;;12379717;28;20506;-83
2020/12/14 16:46:16;;;;;;;4.55;2.28;;;7.50;99.90;;;;;;12394484;28;20088;-83
2020/12/14 16:52:17;;;;;;;3.63;2.10;;;7.50;99.90;;;;;;12381163;28;20491;-83
2020/12/14 16:58:19;;;;;;;5.63;2.55;;;7.40;99.90;;;;;;12380594;28;20085;-83
2020/12/14 17:04:31;;;;;;;8.10;2.53;;;7.40;99.90;;;;;;12391699;28;20429;-83
2020/12/14 17:10:33;;;;;;;4.88;2.35;;;7.40;99.90;;;;;;12371105;28;20061;-83
2020/12/14 17:16:34;;;;;;;6.60;2.10;;;7.40;99.90;;;;;;12377289;28;20084;-83
2020/12/14 17:22:38;;;;;;;5.88;2.10;;;7.40;99.90;;;;;;12386657;28;20590;-83
2020/12/14 17:28:40;;;;;;;5.50;2.38;;;7.40;99.90;;;;;;12394672;28;20493;-83
2020/12/14 17:34:42;;;;;;;4.78;2.30;;;7.40;99.90;;;;;;12397545;28;20063;-83
2020/12/14 17:40:48;;;;;;;3.97;2.20;;;7.40;99.90;;;;;;12378308;28;20075;-84
2020/12/14 17:46:50;;;;;;;4.47;2.58;;;7.40;99.90;;;;;;12372205;28;20097;-83
2020/12/14 17:52:52;;;;;;;5.13;2.17;;;7.40;99.90;;;;;;12378595;28;20065;-83
2020/12/14 17:58:53;;;;;;;3.85;2.10;;;7.40;99.90;;;;;;12380106;28;20047;-83
2020/12/14 18:04:55;;;;;;;4.70;2.38;;;7.30;99.90;;;;;;12395314;28;20050;-83
2020/12/14 18:11:05;;;;;;;6.13;2.58;;;7.20;99.90;;;;;;12398594;28;20733;-83
2020/12/14 18:17:06;;;;;;;4.25;2.35;;;7.20;99.90;;;;;;12374644;28;20050;-82
2020/12/14 18:23:08;;;;;;;7.30;2.70;;;7.10;99.90;;;;;;12391705;28;20503;-82
2020/12/14 18:29:09;;;;;;;4.93;2.70;;;7.10;99.90;;;;;;12382137;28;20081;-83
2020/12/14 18:37:24;;;;;;;4.75;2.15;;;7.10;99.90;;;;;;12374800;28;20060;-83
2020/12/14 18:49:49;;;;;;;4.13;2.10;;;7.20;99.90;;;;;;12390745;28;21965;-82
2020/12/14 21:27:35;;;;;;;4.30;2.40;;;7.10;99.90;;;;;;12407979;28;20057;-85
2020/12/14 21:33:36;;;;;;;4.90;2.33;;;7.10;99.90;;;;;;12403606;28;20043;-84
2020/12/14 21:39:37;;;;;;;5.03;2.40;;;7.10;99.90;;;;;;12386725;28;20050;-85
2020/12/14 21:45:38;;;;;;;4.40;2.80;;;7.10;99.90;;;;;;12398050;28;20038;-84
2020/12/14 21:51:40;;;;;;;4.40;2.28;;;7.20;99.90;;;;;;12402727;28;20046;-84
2020/12/14 21:57:43;;;;;;;5.00;2.67;;;7.10;99.90;;;;;;12431269;28;20066;-84
2020/12/14 22:03:45;;;;;;;5.32;2.47;;;7.20;99.90;;;;;;12407435;28;20066;-85
2020/12/14 22:09:46;;;;;;;4.20;2.70;;;7.10;99.90;;;;;;12402652;28;20042;-84
2020/12/14 22:15:47;;;;;;;6.85;2.80;;;7.20;99.90;;;;;;12368612;28;20102;-84
2020/12/14 22:21:49;;;;;;;5.60;3.10;;;7.20;99.90;;;;;;12394300;28;20053;-83
2020/12/14 22:27:50;;;;;;;4.00;2.90;;;7.30;99.90;;;;;;12377534;28;20062;-84
2020/12/14 22:33:51;;;;;;;4.97;3.10;;;7.20;99.90;;;;;;12373982;28;20057;-83
2020/12/14 22:39:53;;;;;;;4.93;3.20;;;7.30;99.90;;;;;;12371792;28;20108;-84
2020/12/14 22:45:54;;;;;;;4.78;3.05;;;7.30;99.90;;;;;;12368944;28;20577;-84
2020/12/14 22:51:56;;;;;;;4.78;3.05;;;7.30;99.90;;;;;;12375629;28;20053;-84
2020/12/14 22:57:57;;;;;;;4.93;3.10;;;7.30;99.90;;;;;;12378627;28;20144;-84
2020/12/14 23:03:58;;;;;;;5.53;3.33;;;7.20;99.90;;;;;;12393764;28;20046;-85
2020/12/14 23:09:59;;;;;;;4.68;3.20;;;7.30;99.90;;;;;;12392597;28;20065;-84
2020/12/14 23:16:01;;;;;;;5.28;2.95;;;7.30;99.90;;;;;;12375584;28;20047;-84
2020/12/14 23:22:03;;;;;;;4.75;3.40;;;7.40;99.90;;;;;;12376680;28;20417;-84
2020/12/14 23:28:04;;;;;;;4.93;3.28;;;7.40;99.90;;;;;;12404293;28;20273;-85
2020/12/14 23:34:05;;;;;;;4.90;3.53;;;7.40;99.90;;;;;;12413045;28;20054;-85
2020/12/14 23:40:07;;;;;;;4.72;3.42;;;7.40;99.90;;;;;;12397574;28;20220;-84
2020/12/14 23:46:08;;;;;;;5.05;3.70;;;7.40;99.90;;;;;;12388034;28;20042;-84
2020/12/14 23:52:10;;;;;;;5.10;3.28;;;7.50;99.90;;;;;;12401529;28;20076;-84
2020/12/14 23:58:11;;;;;;;6.25;3.58;;;7.50;99.90;;;;;;12399600;28;20062;-84
